sensor_id;sensor_type;location;lat;lon;timestamp;temperature;humidity
52285;DHT22;38238;53.304;6.606;2023-02-01T00:01:10;5.70;99.90
52285;DHT22;38238;53.304;6.606;2023-02-01T00:03:35;5.60;99.90
52285;DHT22;38238;53.304;6.606;2023-02-01T00:06:01;5.70;99.90
52285;DHT22;38238;53.304;6.606;2023-02-01T00:08:27;5.60;99.90
52285;DHT22;38238;53.304;6.606;2023-02-01T00:11:06;5.70;99.90
52285;DHT22;38238;53.304;6.606;2023-02-01T00:13:32;5.70;99.90
52285;DHT22;38238;53.304;6.606;2023-02-01T00:16:06;5.70;99.90
52285;DHT22;38238;53.304;6.606;2023-02-01T00:18:32;5.70;99.90
52285;DHT22;38238;53.304;6.606;2023-02-01T00:20:57;5.70;99.90
52285;DHT22;38238;53.304;6.606;2023-02-01T00:23:23;5.70;99.90
52285;DHT22;38238;53.304;6.606;2023-02-01T00:25:49;5.70;99.90
52285;DHT22;38238;53.304;6.606;2023-02-01T00:28:14;5.70;99.90
52285;DHT22;38238;53.304;6.606;2023-02-01T00:30:40;5.70;99.90
52285;DHT22;38238;53.304;6.606;2023-02-01T00:33:05;5.70;99.90
52285;DHT22;38238;53.304;6.606;2023-02-01T00:35:31;5.80;99.90
52285;DHT22;38238;53.304;6.606;2023-02-01T00:37:58;5.70;99.90
52285;DHT22;38238;53.304;6.606;2023-02-01T00:40:24;5.80;99.90
52285;DHT22;38238;53.304;6.606;2023-02-01T00:42:50;5.80;99.90
52285;DHT22;38238;53.304;6.606;2023-02-01T00:45:16;5.80;99.90
52285;DHT22;38238;53.304;6.606;2023-02-01T00:47:41;5.80;99.90
52285;DHT22;38238;53.304;6.606;2023-02-01T00:50:07;5.80;99.90
52285;DHT22;38238;53.304;6.606;2023-02-01T00:52:33;5.90;99.90
52285;DHT22;38238;53.304;6.606;2023-02-01T00:54:58;5.80;99.90
52285;DHT22;38238;53.304;6.606;2023-02-01T00:57:24;5.90;99.90
52285;DHT22;38238;53.304;6.606;2023-02-01T00:59:49;5.90;99.90
52285;DHT22;38238;53.304;6.606;2023-02-01T01:02:15;5.90;99.90
52285;DHT22;38238;53.304;6.606;2023-02-01T01:04:40;5.90;99.90
52285;DHT22;38238;53.304;6.606;2023-02-01T01:07:06;5.90;99.90
52285;DHT22;38238;53.304;6.606;2023-02-01T01:09:32;5.90;99.90
52285;DHT22;38238;53.304;6.606;2023-02-01T01:11:57;5.90;99.90
52285;DHT22;38238;53.304;6.606;2023-02-01T01:14:30;5.90;99.90
52285;DHT22;38238;53.304;6.606;2023-02-01T01:16:56;5.90;99.90
52285;DHT22;38238;53.304;6.606;2023-02-01T01:19:21;5.90;99.90
52285;DHT22;38238;53.304;6.606;2023-02-01T01:21:47;5.90;99.90
52285;DHT22;38238;53.304;6.606;2023-02-01T01:24:12;5.90;99.90
52285;DHT22;38238;53.304;6.606;2023-02-01T01:26:38;5.90;99.90
52285;DHT22;38238;53.304;6.606;2023-02-01T01:29:04;5.90;99.90
52285;DHT22;38238;53.304;6.606;2023-02-01T01:31:30;5.90;99.90
52285;DHT22;38238;53.304;6.606;2023-02-01T01:33:57;5.90;99.90
52285;DHT22;38238;53.304;6.606;2023-02-01T01:36:23;5.90;99.90
52285;DHT22;38238;53.304;6.606;2023-02-01T01:38:49;5.90;99.90
52285;DHT22;38238;53.304;6.606;2023-02-01T01:41:15;5.90;99.90
52285;DHT22;38238;53.304;6.606;2023-02-01T01:46:20;5.80;99.90
52285;DHT22;38238;53.304;6.606;2023-02-01T01:48:48;5.80;99.90
52285;DHT22;38238;53.304;6.606;2023-02-01T01:51:15;5.80;99.90
52285;DHT22;38238;53.304;6.606;2023-02-01T01:53:44;5.70;99.90
52285;DHT22;38238;53.304;6.606;2023-02-01T01:56:10;5.70;99.90
52285;DHT22;38238;53.304;6.606;2023-02-01T01:58:36;5.70;99.90
52285;DHT22;38238;53.304;6.606;2023-02-01T02:01:02;5.60;99.90
52285;DHT22;38238;53.304;6.606;2023-02-01T02:03:32;5.60;99.90
52285;DHT22;38238;53.304;6.606;2023-02-01T02:05:59;5.60;99.90
52285;DHT22;38238;53.304;6.606;2023-02-01T02:08:26;5.60;99.90
52285;DHT22;38238;53.304;6.606;2023-02-01T02:10:52;5.60;99.90
52285;DHT22;38238;53.304;6.606;2023-02-01T02:13:34;5.50;99.90
52285;DHT22;38238;53.304;6.606;2023-02-01T02:18:44;5.60;99.90
52285;DHT22;38238;53.304;6.606;2023-02-01T02:24:35;5.50;99.90
52285;DHT22;38238;53.304;6.606;2023-02-01T02:34:39;5.40;99.90
52285;DHT22;38238;53.304;6.606;2023-02-01T02:42:23;5.40;99.90
52285;DHT22;38238;53.304;6.606;2023-02-01T02:48:38;5.40;99.90
52285;DHT22;38238;53.304;6.606;2023-02-01T02:51:08;5.40;99.90
52285;DHT22;38238;53.304;6.606;2023-02-01T02:53:57;5.40;99.90
52285;DHT22;38238;53.304;6.606;2023-02-01T02:56:41;5.40;99.90
52285;DHT22;38238;53.304;6.606;2023-02-01T02:59:26;5.50;99.90
52285;DHT22;38238;53.304;6.606;2023-02-01T03:02:11;5.50;99.90
52285;DHT22;38238;53.304;6.606;2023-02-01T03:04:56;5.50;99.90
52285;DHT22;38238;53.304;6.606;2023-02-01T03:10:07;5.60;99.90
52285;DHT22;38238;53.304;6.606;2023-02-01T03:12:37;5.60;99.90
52285;DHT22;38238;53.304;6.606;2023-02-01T03:15:34;5.60;99.90
52285;DHT22;38238;53.304;6.606;2023-02-01T03:18:01;5.70;99.90
52285;DHT22;38238;53.304;6.606;2023-02-01T03:20:28;5.70;99.90
52285;DHT22;38238;53.304;6.606;2023-02-01T03:22:54;5.70;99.90
52285;DHT22;38238;53.304;6.606;2023-02-01T03:25:22;5.70;99.90
52285;DHT22;38238;53.304;6.606;2023-02-01T03:27:55;5.70;99.90
52285;DHT22;38238;53.304;6.606;2023-02-01T03:30:27;5.70;99.90
52285;DHT22;38238;53.304;6.606;2023-02-01T03:32:54;5.70;99.90
52285;DHT22;38238;53.304;6.606;2023-02-01T03:37:56;5.80;99.90
52285;DHT22;38238;53.304;6.606;2023-02-01T03:40:26;5.80;99.90
52285;DHT22;38238;53.304;6.606;2023-02-01T03:42:54;5.80;99.90
52285;DHT22;38238;53.304;6.606;2023-02-01T03:45:28;5.80;99.90
52285;DHT22;38238;53.304;6.606;2023-02-01T03:47:56;5.80;99.90
52285;DHT22;38238;53.304;6.606;2023-02-01T03:50:25;5.80;99.90
52285;DHT22;38238;53.304;6.606;2023-02-01T03:52:58;5.80;99.90
52285;DHT22;38238;53.304;6.606;2023-02-01T03:55:25;5.80;99.90
52285;DHT22;38238;53.304;6.606;2023-02-01T03:57:53;5.70;99.90
52285;DHT22;38238;53.304;6.606;2023-02-01T04:00:22;5.60;99.90
52285;DHT22;38238;53.304;6.606;2023-02-01T04:02:48;5.60;99.90
52285;DHT22;38238;53.304;6.606;2023-02-01T04:05:14;5.60;99.90
52285;DHT22;38238;53.304;6.606;2023-02-01T04:07:39;5.60;99.90
52285;DHT22;38238;53.304;6.606;2023-02-01T04:10:05;5.60;99.90
52285;DHT22;38238;53.304;6.606;2023-02-01T04:12:31;5.60;99.90
52285;DHT22;38238;53.304;6.606;2023-02-01T04:14:56;5.70;99.90
52285;DHT22;38238;53.304;6.606;2023-02-01T04:17:23;5.70;99.90
52285;DHT22;38238;53.304;6.606;2023-02-01T04:19:49;5.70;99.90
52285;DHT22;38238;53.304;6.606;2023-02-01T04:22:14;5.70;99.90
52285;DHT22;38238;53.304;6.606;2023-02-01T04:24:40;5.70;99.90
52285;DHT22;38238;53.304;6.606;2023-02-01T04:27:05;5.80;99.90
52285;DHT22;38238;53.304;6.606;2023-02-01T04:29:31;5.80;99.90
52285;DHT22;38238;53.304;6.606;2023-02-01T04:31:57;5.80;99.90
52285;DHT22;38238;53.304;6.606;2023-02-01T04:34:22;5.70;99.90
52285;DHT22;38238;53.304;6.606;2023-02-01T04:36:50;5.80;99.90
52285;DHT22;38238;53.304;6.606;2023-02-01T04:39:16;5.70;99.90
52285;DHT22;38238;53.304;6.606;2023-02-01T04:41:41;5.70;99.90
52285;DHT22;38238;53.304;6.606;2023-02-01T04:44:09;5.70;99.90
52285;DHT22;38238;53.304;6.606;2023-02-01T04:46:38;5.70;99.90
52285;DHT22;38238;53.304;6.606;2023-02-01T04:49:03;5.70;99.90
52285;DHT22;38238;53.304;6.606;2023-02-01T04:51:29;5.70;99.90
52285;DHT22;38238;53.304;6.606;2023-02-01T04:53:55;5.70;99.90
52285;DHT22;38238;53.304;6.606;2023-02-01T04:56:21;5.70;99.90
52285;DHT22;38238;53.304;6.606;2023-02-01T04:58:46;5.70;99.90
52285;DHT22;38238;53.304;6.606;2023-02-01T05:01:12;5.70;99.90
52285;DHT22;38238;53.304;6.606;2023-02-01T05:03:37;5.70;99.90
52285;DHT22;38238;53.304;6.606;2023-02-01T05:06:03;5.60;99.90
52285;DHT22;38238;53.304;6.606;2023-02-01T05:08:30;5.60;99.90
52285;DHT22;38238;53.304;6.606;2023-02-01T05:10:56;5.60;99.90
52285;DHT22;38238;53.304;6.606;2023-02-01T05:13:22;5.60;99.90
52285;DHT22;38238;53.304;6.606;2023-02-01T05:16:06;5.60;99.90
52285;DHT22;38238;53.304;6.606;2023-02-01T05:18:32;5.60;99.90
52285;DHT22;38238;53.304;6.606;2023-02-01T05:20:57;5.60;99.90
52285;DHT22;38238;53.304;6.606;2023-02-01T05:23:23;5.60;99.90
52285;DHT22;38238;53.304;6.606;2023-02-01T05:25:49;5.60;99.90
52285;DHT22;38238;53.304;6.606;2023-02-01T05:28:14;5.60;99.90
52285;DHT22;38238;53.304;6.606;2023-02-01T05:30:40;5.60;99.90
52285;DHT22;38238;53.304;6.606;2023-02-01T05:33:05;5.60;99.90
52285;DHT22;38238;53.304;6.606;2023-02-01T05:35:31;5.60;99.90
52285;DHT22;38238;53.304;6.606;2023-02-01T05:37:56;5.60;99.90
52285;DHT22;38238;53.304;6.606;2023-02-01T05:40:22;5.70;99.90
52285;DHT22;38238;53.304;6.606;2023-02-01T05:42:48;5.80;99.90
52285;DHT22;38238;53.304;6.606;2023-02-01T05:45:13;5.80;99.90
52285;DHT22;38238;53.304;6.606;2023-02-01T05:47:39;5.80;99.90
52285;DHT22;38238;53.304;6.606;2023-02-01T05:50:06;5.80;99.90
52285;DHT22;38238;53.304;6.606;2023-02-01T05:52:32;5.80;99.90
52285;DHT22;38238;53.304;6.606;2023-02-01T05:54:57;5.90;99.90
52285;DHT22;38238;53.304;6.606;2023-02-01T05:57:23;5.80;99.90
52285;DHT22;38238;53.304;6.606;2023-02-01T05:59:48;5.80;99.90
52285;DHT22;38238;53.304;6.606;2023-02-01T06:02:15;5.90;99.90
52285;DHT22;38238;53.304;6.606;2023-02-01T06:04:43;5.90;99.90
52285;DHT22;38238;53.304;6.606;2023-02-01T06:07:09;5.80;99.90
52285;DHT22;38238;53.304;6.606;2023-02-01T06:09:35;5.80;99.90
52285;DHT22;38238;53.304;6.606;2023-02-01T06:12:01;5.70;99.90
52285;DHT22;38238;53.304;6.606;2023-02-01T06:14:27;5.70;99.90
52285;DHT22;38238;53.304;6.606;2023-02-01T06:16:54;5.70;99.90
52285;DHT22;38238;53.304;6.606;2023-02-01T06:19:20;5.60;99.90
52285;DHT22;38238;53.304;6.606;2023-02-01T06:21:46;5.60;99.90
52285;DHT22;38238;53.304;6.606;2023-02-01T06:24:12;5.60;99.90
52285;DHT22;38238;53.304;6.606;2023-02-01T06:26:38;5.60;99.90
52285;DHT22;38238;53.304;6.606;2023-02-01T06:29:05;5.60;99.90
52285;DHT22;38238;53.304;6.606;2023-02-01T06:31:32;5.60;99.90
52285;DHT22;38238;53.304;6.606;2023-02-01T06:33:57;5.60;99.90
52285;DHT22;38238;53.304;6.606;2023-02-01T06:36:23;5.60;99.90
52285;DHT22;38238;53.304;6.606;2023-02-01T06:38:49;5.70;99.90
52285;DHT22;38238;53.304;6.606;2023-02-01T06:41:14;5.70;99.90
52285;DHT22;38238;53.304;6.606;2023-02-01T06:43:40;5.70;99.90
52285;DHT22;38238;53.304;6.606;2023-02-01T06:46:07;5.70;99.90
52285;DHT22;38238;53.304;6.606;2023-02-01T06:48:33;5.70;99.90
52285;DHT22;38238;53.304;6.606;2023-02-01T06:50:59;5.70;99.90
52285;DHT22;38238;53.304;6.606;2023-02-01T06:53:24;5.70;99.90
52285;DHT22;38238;53.304;6.606;2023-02-01T06:55:57;5.70;99.90
52285;DHT22;38238;53.304;6.606;2023-02-01T06:58:23;5.70;99.90
52285;DHT22;38238;53.304;6.606;2023-02-01T07:00:49;5.70;99.90
52285;DHT22;38238;53.304;6.606;2023-02-01T07:03:15;5.70;99.90
52285;DHT22;38238;53.304;6.606;2023-02-01T07:05:41;5.70;99.90
52285;DHT22;38238;53.304;6.606;2023-02-01T07:08:06;5.70;99.90
52285;DHT22;38238;53.304;6.606;2023-02-01T07:10:33;5.70;99.90
52285;DHT22;38238;53.304;6.606;2023-02-01T07:12:59;5.70;99.90
52285;DHT22;38238;53.304;6.606;2023-02-01T07:15:25;7.50;99.90
52285;DHT22;38238;53.304;6.606;2023-02-01T07:17:50;5.80;99.90
52285;DHT22;38238;53.304;6.606;2023-02-01T07:20:16;5.70;99.90
52285;DHT22;38238;53.304;6.606;2023-02-01T07:22:41;5.80;99.90
52285;DHT22;38238;53.304;6.606;2023-02-01T07:25:07;5.80;99.90
52285;DHT22;38238;53.304;6.606;2023-02-01T07:27:34;5.80;99.90
52285;DHT22;38238;53.304;6.606;2023-02-01T07:29:59;5.80;99.90
52285;DHT22;38238;53.304;6.606;2023-02-01T07:32:28;5.80;99.90
52285;DHT22;38238;53.304;6.606;2023-02-01T07:34:54;5.80;99.90
52285;DHT22;38238;53.304;6.606;2023-02-01T07:37:19;6.20;99.90
52285;DHT22;38238;53.304;6.606;2023-02-01T07:39:45;5.70;99.90
52285;DHT22;38238;53.304;6.606;2023-02-01T07:42:10;5.80;99.90
52285;DHT22;38238;53.304;6.606;2023-02-01T07:44:36;5.80;99.90
52285;DHT22;38238;53.304;6.606;2023-02-01T07:47:02;5.80;99.90
52285;DHT22;38238;53.304;6.606;2023-02-01T07:49:27;5.80;99.90
52285;DHT22;38238;53.304;6.606;2023-02-01T07:51:53;5.80;99.90
52285;DHT22;38238;53.304;6.606;2023-02-01T07:54:18;5.80;99.90
52285;DHT22;38238;53.304;6.606;2023-02-01T07:56:44;5.80;99.90
52285;DHT22;38238;53.304;6.606;2023-02-01T07:59:09;5.80;99.90
52285;DHT22;38238;53.304;6.606;2023-02-01T08:01:36;5.80;99.90
52285;DHT22;38238;53.304;6.606;2023-02-01T08:04:02;5.80;99.90
52285;DHT22;38238;53.304;6.606;2023-02-01T08:06:29;5.80;99.90
52285;DHT22;38238;53.304;6.606;2023-02-01T08:08:56;5.90;99.90
52285;DHT22;38238;53.304;6.606;2023-02-01T08:11:22;5.90;99.90
52285;DHT22;38238;53.304;6.606;2023-02-01T08:13:48;5.90;99.90
52285;DHT22;38238;53.304;6.606;2023-02-01T08:16:15;5.90;99.90
52285;DHT22;38238;53.304;6.606;2023-02-01T08:18:41;5.90;99.90
52285;DHT22;38238;53.304;6.606;2023-02-01T08:21:11;5.90;99.90
52285;DHT22;38238;53.304;6.606;2023-02-01T08:23:37;6.00;99.90
52285;DHT22;38238;53.304;6.606;2023-02-01T08:26:07;5.90;99.90
52285;DHT22;38238;53.304;6.606;2023-02-01T08:28:32;5.90;99.90
52285;DHT22;38238;53.304;6.606;2023-02-01T08:30:58;5.90;99.90
52285;DHT22;38238;53.304;6.606;2023-02-01T08:33:24;5.90;99.90
52285;DHT22;38238;53.304;6.606;2023-02-01T08:35:50;5.90;99.90
52285;DHT22;38238;53.304;6.606;2023-02-01T08:38:15;6.00;99.90
52285;DHT22;38238;53.304;6.606;2023-02-01T08:40:41;6.00;99.90
52285;DHT22;38238;53.304;6.606;2023-02-01T08:43:07;6.00;99.90
52285;DHT22;38238;53.304;6.606;2023-02-01T08:45:32;6.00;99.90
52285;DHT22;38238;53.304;6.606;2023-02-01T08:47:58;6.00;99.90
52285;DHT22;38238;53.304;6.606;2023-02-01T08:50:24;6.00;99.90
52285;DHT22;38238;53.304;6.606;2023-02-01T08:52:50;8.50;99.90
52285;DHT22;38238;53.304;6.606;2023-02-01T08:55:16;6.10;99.90
52285;DHT22;38238;53.304;6.606;2023-02-01T08:57:42;6.00;99.90
52285;DHT22;38238;53.304;6.606;2023-02-01T09:00:09;6.10;99.90
52285;DHT22;38238;53.304;6.606;2023-02-01T09:02:35;6.10;99.90
52285;DHT22;38238;53.304;6.606;2023-02-01T09:05:01;6.10;99.90
52285;DHT22;38238;53.304;6.606;2023-02-01T09:07:27;6.00;99.90
52285;DHT22;38238;53.304;6.606;2023-02-01T09:09:52;6.10;99.90
52285;DHT22;38238;53.304;6.606;2023-02-01T09:12:20;6.10;99.90
52285;DHT22;38238;53.304;6.606;2023-02-01T09:14:45;6.10;99.90
52285;DHT22;38238;53.304;6.606;2023-02-01T09:17:11;6.10;99.90
52285;DHT22;38238;53.304;6.606;2023-02-01T09:19:39;6.10;99.90
52285;DHT22;38238;53.304;6.606;2023-02-01T09:22:04;6.10;99.90
52285;DHT22;38238;53.304;6.606;2023-02-01T09:24:30;6.10;99.90
52285;DHT22;38238;53.304;6.606;2023-02-01T09:26:55;6.10;99.90
52285;DHT22;38238;53.304;6.606;2023-02-01T09:29:21;6.10;99.90
52285;DHT22;38238;53.304;6.606;2023-02-01T09:31:46;6.10;99.90
52285;DHT22;38238;53.304;6.606;2023-02-01T09:34:12;6.20;99.90
52285;DHT22;38238;53.304;6.606;2023-02-01T09:36:38;6.10;99.90
52285;DHT22;38238;53.304;6.606;2023-02-01T09:39:03;6.20;99.90
52285;DHT22;38238;53.304;6.606;2023-02-01T09:41:35;6.20;99.90
52285;DHT22;38238;53.304;6.606;2023-02-01T09:46:47;6.20;99.90
52285;DHT22;38238;53.304;6.606;2023-02-01T09:49:15;6.20;99.90
52285;DHT22;38238;53.304;6.606;2023-02-01T09:51:43;6.10;99.90
52285;DHT22;38238;53.304;6.606;2023-02-01T09:54:11;6.00;99.90
52285;DHT22;38238;53.304;6.606;2023-02-01T09:57:14;6.10;99.90
52285;DHT22;38238;53.304;6.606;2023-02-01T09:59:43;6.00;99.90
52285;DHT22;38238;53.304;6.606;2023-02-01T10:02:11;6.00;99.90
52285;DHT22;38238;53.304;6.606;2023-02-01T10:04:37;6.00;99.90
52285;DHT22;38238;53.304;6.606;2023-02-01T10:07:06;5.90;99.90
52285;DHT22;38238;53.304;6.606;2023-02-01T10:09:40;5.80;99.90
52285;DHT22;38238;53.304;6.606;2023-02-01T10:19:42;5.70;99.90
52285;DHT22;38238;53.304;6.606;2023-02-01T10:22:17;5.60;99.90
52285;DHT22;38238;53.304;6.606;2023-02-01T10:24:52;5.60;99.90
52285;DHT22;38238;53.304;6.606;2023-02-01T10:27:32;5.60;99.90
52285;DHT22;38238;53.304;6.606;2023-02-01T10:29:59;5.60;99.90
52285;DHT22;38238;53.304;6.606;2023-02-01T10:32:31;5.60;99.90
52285;DHT22;38238;53.304;6.606;2023-02-01T10:34:58;5.70;99.90
52285;DHT22;38238;53.304;6.606;2023-02-01T10:37:33;5.70;99.90
52285;DHT22;38238;53.304;6.606;2023-02-01T10:40:00;5.80;99.90
52285;DHT22;38238;53.304;6.606;2023-02-01T10:42:28;5.70;99.90
52285;DHT22;38238;53.304;6.606;2023-02-01T10:44:57;5.80;99.90
52285;DHT22;38238;53.304;6.606;2023-02-01T10:47:24;5.90;99.90
52285;DHT22;38238;53.304;6.606;2023-02-01T10:52:17;6.00;99.90
52285;DHT22;38238;53.304;6.606;2023-02-01T10:54:43;6.10;99.90
52285;DHT22;38238;53.304;6.606;2023-02-01T10:57:10;7.70;99.90
52285;DHT22;38238;53.304;6.606;2023-02-01T10:59:36;6.30;99.90
52285;DHT22;38238;53.304;6.606;2023-02-01T11:02:15;6.40;99.90
52285;DHT22;38238;53.304;6.606;2023-02-01T11:04:41;6.50;99.90
52285;DHT22;38238;53.304;6.606;2023-02-01T11:07:12;7.60;99.90
52285;DHT22;38238;53.304;6.606;2023-02-01T11:09:42;6.80;99.90
52285;DHT22;38238;53.304;6.606;2023-02-01T11:17:43;8.00;99.90
52285;DHT22;38238;53.304;6.606;2023-02-01T11:20:14;6.60;99.90
52285;DHT22;38238;53.304;6.606;2023-02-01T11:22:45;5.40;99.90
52285;DHT22;38238;53.304;6.606;2023-02-01T11:25:13;4.60;99.90
52285;DHT22;38238;53.304;6.606;2023-02-01T11:27:39;4.10;99.90
52285;DHT22;38238;53.304;6.606;2023-02-01T11:30:05;3.80;99.90
52285;DHT22;38238;53.304;6.606;2023-02-01T11:32:31;3.60;99.90
52285;DHT22;38238;53.304;6.606;2023-02-01T11:34:57;4.40;99.90
52285;DHT22;38238;53.304;6.606;2023-02-01T11:37:43;3.60;99.90
52285;DHT22;38238;53.304;6.606;2023-02-01T11:42:57;3.40;99.90
52285;DHT22;38238;53.304;6.606;2023-02-01T11:45:31;3.50;99.90
52285;DHT22;38238;53.304;6.606;2023-02-01T11:47:59;3.40;99.90
52285;DHT22;38238;53.304;6.606;2023-02-01T11:50:31;3.40;99.90
52285;DHT22;38238;53.304;6.606;2023-02-01T11:58:16;3.40;99.90
52285;DHT22;38238;53.304;6.606;2023-02-01T12:16:45;3.60;99.90
52285;DHT22;38238;53.304;6.606;2023-02-01T12:19:23;3.80;99.90
52285;DHT22;38238;53.304;6.606;2023-02-01T12:24:24;4.00;99.90
52285;DHT22;38238;53.304;6.606;2023-02-01T12:42:31;5.10;99.90
52285;DHT22;38238;53.304;6.606;2023-02-01T12:45:01;5.20;99.90
52285;DHT22;38238;53.304;6.606;2023-02-01T12:49:55;5.70;99.90
52285;DHT22;38238;53.304;6.606;2023-02-01T12:52:28;6.60;99.90
52285;DHT22;38238;53.304;6.606;2023-02-01T12:55:01;6.30;99.90
52285;DHT22;38238;53.304;6.606;2023-02-01T12:57:38;6.40;99.90
52285;DHT22;38238;53.304;6.606;2023-02-01T13:02:42;6.70;99.90
52285;DHT22;38238;53.304;6.606;2023-02-01T13:07:58;7.20;99.90
52285;DHT22;38238;53.304;6.606;2023-02-01T13:15:44;7.40;99.90
52285;DHT22;38238;53.304;6.606;2023-02-01T13:18:13;7.30;99.90
52285;DHT22;38238;53.304;6.606;2023-02-01T13:20:58;7.30;99.90
52285;DHT22;38238;53.304;6.606;2023-02-01T13:23:31;7.30;99.90
52285;DHT22;38238;53.304;6.606;2023-02-01T13:25:59;7.30;99.90
52285;DHT22;38238;53.304;6.606;2023-02-01T13:31:14;7.20;99.90
52285;DHT22;38238;53.304;6.606;2023-02-01T13:33:47;7.20;99.90
52285;DHT22;38238;53.304;6.606;2023-02-01T13:41:31;7.10;99.90
52285;DHT22;38238;53.304;6.606;2023-02-01T13:43:59;7.10;99.90
52285;DHT22;38238;53.304;6.606;2023-02-01T13:46:26;7.10;99.90
52285;DHT22;38238;53.304;6.606;2023-02-01T13:48:54;7.00;99.90
52285;DHT22;38238;53.304;6.606;2023-02-01T13:51:34;7.00;99.90
52285;DHT22;38238;53.304;6.606;2023-02-01T13:54:00;7.00;99.90
52285;DHT22;38238;53.304;6.606;2023-02-01T13:56:26;7.00;99.90
52285;DHT22;38238;53.304;6.606;2023-02-01T13:58:52;7.10;99.90
52285;DHT22;38238;53.304;6.606;2023-02-01T14:03:49;7.10;99.90
52285;DHT22;38238;53.304;6.606;2023-02-01T14:16:38;7.20;99.90
52285;DHT22;38238;53.304;6.606;2023-02-01T14:19:07;7.20;99.90
52285;DHT22;38238;53.304;6.606;2023-02-01T14:21:35;7.50;99.90
52285;DHT22;38238;53.304;6.606;2023-02-01T14:31:44;7.10;99.90
52285;DHT22;38238;53.304;6.606;2023-02-01T14:34:19;7.10;99.90
52285;DHT22;38238;53.304;6.606;2023-02-01T14:36:57;7.20;99.90
52285;DHT22;38238;53.304;6.606;2023-02-01T14:39:26;7.20;99.90
52285;DHT22;38238;53.304;6.606;2023-02-01T14:41:53;7.20;99.90
52285;DHT22;38238;53.304;6.606;2023-02-01T14:44:24;7.30;99.90
52285;DHT22;38238;53.304;6.606;2023-02-01T14:49:29;7.30;99.90
52285;DHT22;38238;53.304;6.606;2023-02-01T14:51:56;7.30;99.90
52285;DHT22;38238;53.304;6.606;2023-02-01T14:54:22;7.30;99.90
52285;DHT22;38238;53.304;6.606;2023-02-01T14:56:48;7.30;99.90
52285;DHT22;38238;53.304;6.606;2023-02-01T14:59:15;7.40;99.90
52285;DHT22;38238;53.304;6.606;2023-02-01T15:01:49;7.40;99.90
52285;DHT22;38238;53.304;6.606;2023-02-01T15:04:17;7.40;99.90
52285;DHT22;38238;53.304;6.606;2023-02-01T15:09:20;7.30;99.90
52285;DHT22;38238;53.304;6.606;2023-02-01T15:15:10;7.10;99.90
52285;DHT22;38238;53.304;6.606;2023-02-01T15:17:36;7.10;99.90
52285;DHT22;38238;53.304;6.606;2023-02-01T15:20:04;7.00;99.90
52285;DHT22;38238;53.304;6.606;2023-02-01T15:22:36;7.00;99.90
52285;DHT22;38238;53.304;6.606;2023-02-01T15:25:02;7.00;99.90
52285;DHT22;38238;53.304;6.606;2023-02-01T15:27:28;6.90;99.90
52285;DHT22;38238;53.304;6.606;2023-02-01T15:29:54;6.90;99.90
52285;DHT22;38238;53.304;6.606;2023-02-01T15:32:37;6.90;99.90
52285;DHT22;38238;53.304;6.606;2023-02-01T15:35:04;6.90;99.90
52285;DHT22;38238;53.304;6.606;2023-02-01T15:37:29;6.90;99.90
52285;DHT22;38238;53.304;6.606;2023-02-01T15:40:29;6.90;99.90
52285;DHT22;38238;53.304;6.606;2023-02-01T15:42:50;6.90;99.90
52285;DHT22;38238;53.304;6.606;2023-02-01T15:45:17;6.90;99.90
52285;DHT22;38238;53.304;6.606;2023-02-01T15:47:46;6.80;99.90
52285;DHT22;38238;53.304;6.606;2023-02-01T15:50:12;7.30;99.90
52285;DHT22;38238;53.304;6.606;2023-02-01T15:52:40;6.70;99.90
52285;DHT22;38238;53.304;6.606;2023-02-01T15:55:52;6.70;99.90
52285;DHT22;38238;53.304;6.606;2023-02-01T15:57:52;6.70;99.90
52285;DHT22;38238;53.304;6.606;2023-02-01T16:05:53;6.60;99.90
52285;DHT22;38238;53.304;6.606;2023-02-01T16:08:14;6.60;99.90
52285;DHT22;38238;53.304;6.606;2023-02-01T16:10:41;6.60;99.90
52285;DHT22;38238;53.304;6.606;2023-02-01T16:13:07;6.60;99.90
52285;DHT22;38238;53.304;6.606;2023-02-01T16:15:33;6.60;99.90
52285;DHT22;38238;53.304;6.606;2023-02-01T16:17:58;6.60;99.90
52285;DHT22;38238;53.304;6.606;2023-02-01T16:20:24;6.60;99.90
52285;DHT22;38238;53.304;6.606;2023-02-01T16:22:50;6.50;99.90
52285;DHT22;38238;53.304;6.606;2023-02-01T16:25:15;6.60;99.90
52285;DHT22;38238;53.304;6.606;2023-02-01T16:27:41;6.50;99.90
52285;DHT22;38238;53.304;6.606;2023-02-01T16:30:07;6.50;99.90
52285;DHT22;38238;53.304;6.606;2023-02-01T16:32:35;6.50;99.90
52285;DHT22;38238;53.304;6.606;2023-02-01T16:35:37;6.50;99.90
52285;DHT22;38238;53.304;6.606;2023-02-01T16:40:15;6.30;99.90
52285;DHT22;38238;53.304;6.606;2023-02-01T16:42:41;6.40;99.90
52285;DHT22;38238;53.304;6.606;2023-02-01T16:45:07;6.30;99.90
52285;DHT22;38238;53.304;6.606;2023-02-01T16:47:36;6.30;99.90
52285;DHT22;38238;53.304;6.606;2023-02-01T16:50:03;6.40;99.90
52285;DHT22;38238;53.304;6.606;2023-02-01T16:52:29;6.30;99.90
52285;DHT22;38238;53.304;6.606;2023-02-01T16:54:55;6.30;99.90
52285;DHT22;38238;53.304;6.606;2023-02-01T16:57:21;6.30;99.90
52285;DHT22;38238;53.304;6.606;2023-02-01T16:59:49;6.30;99.90
52285;DHT22;38238;53.304;6.606;2023-02-01T17:02:17;6.60;99.90
52285;DHT22;38238;53.304;6.606;2023-02-01T17:04:45;6.30;99.90
52285;DHT22;38238;53.304;6.606;2023-02-01T17:07:15;6.30;99.90
52285;DHT22;38238;53.304;6.606;2023-02-01T17:09:42;6.30;99.90
52285;DHT22;38238;53.304;6.606;2023-02-01T17:12:26;6.30;99.90
52285;DHT22;38238;53.304;6.606;2023-02-01T17:14:52;6.30;99.90
52285;DHT22;38238;53.304;6.606;2023-02-01T17:17:22;6.30;99.90
52285;DHT22;38238;53.304;6.606;2023-02-01T17:19:50;6.20;99.90
52285;DHT22;38238;53.304;6.606;2023-02-01T17:22:20;6.20;99.90
52285;DHT22;38238;53.304;6.606;2023-02-01T17:24:46;6.20;99.90
52285;DHT22;38238;53.304;6.606;2023-02-01T17:27:12;6.20;99.90
52285;DHT22;38238;53.304;6.606;2023-02-01T17:29:38;6.20;99.90
52285;DHT22;38238;53.304;6.606;2023-02-01T17:32:05;6.10;99.90
52285;DHT22;38238;53.304;6.606;2023-02-01T17:34:31;6.10;99.90
52285;DHT22;38238;53.304;6.606;2023-02-01T17:36:56;6.10;99.90
52285;DHT22;38238;53.304;6.606;2023-02-01T17:39:22;6.10;99.90
52285;DHT22;38238;53.304;6.606;2023-02-01T17:42:12;6.10;99.90
52285;DHT22;38238;53.304;6.606;2023-02-01T17:44:44;6.10;99.90
52285;DHT22;38238;53.304;6.606;2023-02-01T17:47:14;6.10;99.90
52285;DHT22;38238;53.304;6.606;2023-02-01T17:49:40;6.00;99.90
52285;DHT22;38238;53.304;6.606;2023-02-01T17:52:05;6.00;99.90
52285;DHT22;38238;53.304;6.606;2023-02-01T17:54:33;6.00;99.90
52285;DHT22;38238;53.304;6.606;2023-02-01T17:56:59;6.00;99.90
52285;DHT22;38238;53.304;6.606;2023-02-01T17:59:28;6.10;99.90
52285;DHT22;38238;53.304;6.606;2023-02-01T18:01:53;6.00;99.90
52285;DHT22;38238;53.304;6.606;2023-02-01T18:04:25;6.10;99.90
52285;DHT22;38238;53.304;6.606;2023-02-01T18:06:51;6.10;99.90
52285;DHT22;38238;53.304;6.606;2023-02-01T18:09:16;6.10;99.90
52285;DHT22;38238;53.304;6.606;2023-02-01T18:11:42;6.10;99.90
52285;DHT22;38238;53.304;6.606;2023-02-01T18:14:11;6.20;99.90
52285;DHT22;38238;53.304;6.606;2023-02-01T18:16:37;6.10;99.90
52285;DHT22;38238;53.304;6.606;2023-02-01T18:19:03;6.20;99.90